Puerto Banus, Marbella

>

This is an optional block (switch it off / on) in the settings - file ($SITE['banners'] = false;)

You can display ads, any other important text or photo’s using text / html or PHP code.

You can place one or more at the top and or bottom and it can all be different for content / size .



Meteosat more information blitzortung!


Radar lluvias  rain snow radar


Visita nuestra red de sitios de meteo:

Documentation for the template used

MeteoibericaRed estaciones Meteorologicas

MeteoclimaticRed estaciones Meteorologicas



Sin Advertencias climatologicas .En este momento tenemos Nivel Verde.    No hay Alarmas

Pagina Historial Weather Underground texto

Diario Resumen Diciembre 4, 2017 Unidades:  impérial    Métrico   Tanto
« Anterior Dia
Siguiente Dia »
Diario Semana Mensual Anual Personalizada
  Maxima: Minima: Media:
Temperatura: 57.7 °F 46 °F 52.9 °F
Punto de rocío: 47.8 °F 33.8 °F 42.8 °F
Humedad: 74 % 60 % 69 %
Velocidad del Viento: 24.2 mph 3.5 mph 12.6 mph
Ráfagas de viento: 24.2 mph - -
Viento:- - East
Pression baro: 30.5 in 30.4 in -
Précipitaciones: 0 in    
Historical Graphs
 
 
Datos de tabla para Diciembre 4, 2017
Tiempo Temperatura Punto de rocío Pression baro Viento Velocidad del Viento Ráfagas de viento Humedad Las precipitaciones Rate ( Hora )
00:02 49.1 °F 40.8 °F 30.4 in NNW 11.5 mph 11.5 mph 73 % 0 in
00:07 49.1 °F 40.8 °F 30.4 in North 11.5 mph 11.5 mph 73 % 0 in
00:12 49.1 °F 40.8 °F 30.4 in NNE 11.5 mph 11.5 mph 73 % 0 in
00:17 49.1 °F 40.8 °F 30.4 in North 12.7 mph 12.7 mph 73 % 0 in
00:22 49.3 °F 40.8 °F 30.4 in North 11.5 mph 11.5 mph 73 % 0 in
00:27 49.3 °F 40.8 °F 30.4 in NNW 11.5 mph 11.5 mph 73 % 0 in
00:32 49.3 °F 40.8 °F 30.4 in NNE 11.5 mph 11.5 mph 73 % 0 in
00:37 49.3 °F 40.8 °F 30.4 in NNE 12.7 mph 12.7 mph 73 % 0 in
00:42 49.3 °F 40.8 °F 30.4 in NNE 12.7 mph 12.7 mph 73 % 0 in
00:47 49.1 °F 40.8 °F 30.4 in North 11.5 mph 11.5 mph 73 % 0 in
00:48 49.1 °F 40.8 °F 30.4 in North 11.5 mph 11.5 mph 73 % 0 in
00:53 49.1 °F 40.8 °F 30.4 in North 9.2 mph 9.2 mph 73 % 0 in
00:58 49.1 °F 40.8 °F 30.4 in NNE 10.4 mph 10.4 mph 73 % 0 in
01:03 49.3 °F 40.8 °F 30.4 in North 10.4 mph 10.4 mph 73 % 0 in
01:08 49.3 °F 40.8 °F 30.4 in NNE 9.2 mph 9.2 mph 73 % 0 in
01:13 49.3 °F 40.8 °F 30.4 in North 10.4 mph 10.4 mph 73 % 0 in
01:14 49.3 °F 40.8 °F 30.4 in North 9.2 mph 9.2 mph 73 % 0 in
01:24 49.1 °F 40.8 °F 30.4 in North 10.4 mph 10.4 mph 73 % 0 in
01:29 48.9 °F 40.6 °F 30.4 in North 10.4 mph 10.4 mph 73 % 0 in
01:34 48.9 °F 40.6 °F 30.4 in North 10 mph 10 mph 73 % 0 in
01:39 49.1 °F 40.8 °F 30.4 in North 10.4 mph 10.4 mph 73 % 0 in
01:44 49.1 °F 40.8 °F 30.4 in North 11.5 mph 11.5 mph 73 % 0 in
01:49 49.1 °F 40.8 °F 30.4 in NNE 9.2 mph 9.2 mph 73 % 0 in
01:54 49.1 °F 40.5 °F 30.4 in NNE 9.2 mph 9.2 mph 72 % 0 in
01:59 49.3 °F 40.6 °F 30.4 in NNE 11.5 mph 11.5 mph 72 % 0 in
02:04 49.1 °F 40.5 °F 30.4 in North 9.2 mph 9.2 mph 72 % 0 in
02:09 49.1 °F 40.5 °F 30.4 in North 9.2 mph 9.2 mph 72 % 0 in
02:14 49.1 °F 40.5 °F 30.4 in North 8.1 mph 8.1 mph 72 % 0 in
02:19 48.9 °F 40.5 °F 30.4 in North 11.5 mph 11.5 mph 72 % 0 in
02:24 48.9 °F 40.5 °F 30.4 in North 11 mph 11 mph 72 % 0 in
02:29 48.9 °F 40.5 °F 30.4 in North 9.2 mph 9.2 mph 72 % 0 in
02:35 48.9 °F 40.3 °F 30.4 in NNE 10 mph 10 mph 72 % 0 in
02:40 48.9 °F 40.3 °F 30.4 in North 9.2 mph 9.2 mph 72 % 0 in
02:45 48.7 °F 40.5 °F 30.4 in North 8.1 mph 8.1 mph 73 % 0 in
02:50 48.7 °F 40.5 °F 30.4 in NNE 8.1 mph 8.1 mph 73 % 0 in
02:55 48.7 °F 40.1 °F 30.4 in North 10 mph 10 mph 72 % 0 in
03:00 48.7 °F 40.1 °F 30.4 in North 6.9 mph 6.9 mph 72 % 0 in
03:05 48.7 °F 40.1 °F 30.4 in North 9.2 mph 9.2 mph 72 % 0 in
03:10 48.7 °F 40.3 °F 30.4 in North 6.9 mph 6.9 mph 72 % 0 in
03:15 48.7 °F 40.3 °F 30.4 in North 9.2 mph 9.2 mph 72 % 0 in
03:20 48.7 °F 40.3 °F 30.4 in North 9.2 mph 9.2 mph 72 % 0 in
03:25 48.9 °F 40.3 °F 30.4 in North 10.4 mph 10.4 mph 72 % 0 in
03:27 48.9 °F 39.9 °F 30.4 in North 10.4 mph 10.4 mph 71 % 0 in
03:32 48.7 °F 39.7 °F 30.4 in North 9.2 mph 9.2 mph 71 % 0 in
03:37 48.6 °F 39.9 °F 30.4 in North 9.2 mph 9.2 mph 72 % 0 in
03:42 48.4 °F 39.7 °F 30.4 in North 8.1 mph 8.1 mph 72 % 0 in
03:47 48.4 °F 39.7 °F 30.4 in North 9.2 mph 9.2 mph 72 % 0 in
03:52 48.4 °F 39.4 °F 30.4 in NNW 6.9 mph 6.9 mph 71 % 0 in
04:02 48 °F 39.4 °F 30.4 in North 9.2 mph 9.2 mph 72 % 0 in
04:07 47.8 °F 39.4 °F 30.4 in NNW 10.4 mph 10.4 mph 72 % 0 in
04:12 47.8 °F 39.4 °F 30.4 in North 8.1 mph 8.1 mph 72 % 0 in
04:18 47.8 °F 39.2 °F 30.4 in North 10.4 mph 10.4 mph 72 % 0 in
04:21 47.8 °F 39.2 °F 30.4 in North 10 mph 10 mph 72 % 0 in
04:22 47.8 °F 39.2 °F 30.4 in North 11.5 mph 11.5 mph 72 % 0 in
04:26 47.8 °F 38.8 °F 30.4 in North 12.7 mph 12.7 mph 71 % 0 in
04:28 47.8 °F 38.8 °F 30.4 in North 10.4 mph 10.4 mph 71 % 0 in
04:29 47.8 °F 38.8 °F 30.4 in NNE 10.4 mph 10.4 mph 71 % 0 in
04:31 47.8 °F 38.8 °F 30.4 in North 10.4 mph 10.4 mph 71 % 0 in
04:36 47.7 °F 38.8 °F 30.4 in North 10.4 mph 10.4 mph 71 % 0 in
04:38 47.7 °F 38.7 °F 30.4 in North 9.2 mph 9.2 mph 71 % 0 in
04:41 47.5 °F 38.7 °F 30.4 in North 11 mph 11 mph 71 % 0 in
04:46 47.5 °F 38.7 °F 30.4 in North 11.5 mph 11.5 mph 71 % 0 in
04:51 47.5 °F 38.5 °F 30.4 in North 8.1 mph 8.1 mph 71 % 0 in
04:56 47.3 °F 38.5 °F 30.4 in North 9.2 mph 9.2 mph 71 % 0 in
05:01 47.1 °F 38.3 °F 30.4 in North 11.5 mph 11.5 mph 71 % 0 in
05:06 47.1 °F 37.9 °F 30.4 in North 10.4 mph 10.4 mph 70 % 0 in
05:11 47.3 °F 37.9 °F 30.4 in North 11.5 mph 11.5 mph 70 % 0 in
05:16 47.3 °F 37.6 °F 30.4 in NNE 11.5 mph 11.5 mph 69 % 0 in
05:21 47.1 °F 37.4 °F 30.4 in North 11.5 mph 11.5 mph 69 % 0 in
05:26 47.1 °F 37 °F 30.4 in North 11.5 mph 11.5 mph 68 % 0 in
05:31 46.9 °F 37 °F 30.4 in North 11.5 mph 11.5 mph 68 % 0 in
05:36 46.9 °F 36.9 °F 30.4 in North 9.2 mph 9.2 mph 68 % 0 in
05:41 46.8 °F 36.9 °F 30.4 in NNE 10.4 mph 10.4 mph 68 % 0 in
05:46 46.8 °F 36.7 °F 30.4 in NNW 10.4 mph 10.4 mph 68 % 0 in
05:51 46.6 °F 36.7 °F 30.4 in NNW 9.2 mph 9.2 mph 68 % 0 in
05:52 46.6 °F 36.7 °F 30.4 in North 10.4 mph 10.4 mph 68 % 0 in
05:57 46.6 °F 36.7 °F 30.4 in North 9.2 mph 9.2 mph 68 % 0 in
06:02 46.6 °F 36.5 °F 30.4 in NNW 11.5 mph 11.5 mph 68 % 0 in
06:03 46.6 °F 36.5 °F 30.4 in North 11.5 mph 11.5 mph 68 % 0 in
06:08 46.4 °F 36.3 °F 30.4 in NNE 11.5 mph 11.5 mph 68 % 0 in
06:13 46.4 °F 36.3 °F 30.4 in NNW 9.2 mph 9.2 mph 68 % 0 in
06:18 46.6 °F 36.1 °F 30.4 in North 11.5 mph 11.5 mph 67 % 0 in
06:23 46.4 °F 36 °F 30.4 in NNE 11.5 mph 11.5 mph 67 % 0 in
06:28 46.4 °F 36 °F 30.4 in North 10.4 mph 10.4 mph 67 % 0 in
06:33 46.6 °F 36.1 °F 30.4 in North 11.5 mph 11.5 mph 67 % 0 in
06:38 46.4 °F 35.8 °F 30.4 in North 11.5 mph 11.5 mph 66 % 0 in
06:43 46.2 °F 35.6 °F 30.4 in NNE 9.2 mph 9.2 mph 66 % 0 in
06:48 46.4 °F 35.8 °F 30.4 in North 11.5 mph 11.5 mph 66 % 0 in
06:53 46.4 °F 35.2 °F 30.4 in NNE 11.5 mph 11.5 mph 65 % 0 in
06:58 46.4 °F 35.2 °F 30.4 in North 10.4 mph 10.4 mph 65 % 0 in
07:03 46.4 °F 34.9 °F 30.4 in North 11.5 mph 11.5 mph 64 % 0 in
07:08 46.6 °F 35.1 °F 30.4 in NNE 11.5 mph 11.5 mph 64 % 0 in
07:13 46.6 °F 35.1 °F 30.4 in North 11.5 mph 11.5 mph 64 % 0 in
07:18 46.6 °F 34.5 °F 30.4 in North 11.5 mph 11.5 mph 63 % 0 in
07:23 46.4 °F 34.5 °F 30.4 in North 11.5 mph 11.5 mph 63 % 0 in
07:28 46.4 °F 34.5 °F 30.4 in North 10.4 mph 10.4 mph 63 % 0 in
07:33 46.6 °F 34.2 °F 30.4 in North 12.7 mph 12.7 mph 62 % 0 in
07:38 46.6 °F 34.3 °F 30.4 in North 12.7 mph 12.7 mph 62 % 0 in
07:43 46.6 °F 34 °F 30.4 in North 11.5 mph 11.5 mph 61 % 0 in
07:48 46.6 °F 34.3 °F 30.4 in North 11.5 mph 11.5 mph 62 % 0 in
07:53 46.6 °F 34.2 °F 30.4 in North 11.5 mph 11.5 mph 62 % 0 in
07:58 46.6 °F 34.2 °F 30.4 in North 11.5 mph 11.5 mph 62 % 0 in
08:03 46.4 °F 34.5 °F 30.4 in North 10.4 mph 10.4 mph 63 % 0 in
08:08 46.2 °F 34.3 °F 30.4 in NNW 11.5 mph 11.5 mph 63 % 0 in
08:13 46 °F 34.2 °F 30.4 in North 10.4 mph 10.4 mph 63 % 0 in
08:18 46 °F 34.2 °F 30.4 in North 11.5 mph 11.5 mph 63 % 0 in
08:23 46 °F 34.2 °F 30.4 in NNE 11.5 mph 11.5 mph 63 % 0 in
08:28 46 °F 34.2 °F 30.4 in North 11.5 mph 11.5 mph 63 % 0 in
08:33 46 °F 33.8 °F 30.4 in North 11.5 mph 11.5 mph 62 % 0 in
08:38 46 °F 34.2 °F 30.4 in North 11.5 mph 11.5 mph 63 % 0 in
08:43 46 °F 34.2 °F 30.4 in North 11.5 mph 11.5 mph 63 % 0 in
08:48 46.2 °F 34.3 °F 30.4 in North 10.4 mph 10.4 mph 63 % 0 in
08:53 46.2 °F 34.3 °F 30.4 in North 11.5 mph 11.5 mph 63 % 0 in
08:58 46.6 °F 34.5 °F 30.4 in North 10.4 mph 10.4 mph 63 % 0 in
09:03 46.8 °F 34.9 °F 30.4 in North 11.5 mph 11.5 mph 63 % 0 in
09:08 47.3 °F 34.5 °F 30.4 in North 11.5 mph 11.5 mph 61 % 0 in
09:13 47.7 °F 34.5 °F 30.4 in NNE 11.5 mph 11.5 mph 60 % 0 in
09:18 48.2 °F 35.4 °F 30.4 in North 9.2 mph 9.2 mph 61 % 0 in
09:23 48.7 °F 35.8 °F 30.4 in North 11.5 mph 11.5 mph 61 % 0 in
09:28 48.9 °F 35.8 °F 30.4 in North 11.5 mph 11.5 mph 60 % 0 in
09:33 49.3 °F 36 °F 30.4 in North 9.2 mph 9.2 mph 60 % 0 in
09:38 49.3 °F 36.3 °F 30.4 in NNE 6.9 mph 6.9 mph 61 % 0 in
09:43 50.2 °F 38.5 °F 30.4 in NNE 10.4 mph 10.4 mph 64 % 0 in
09:48 50.7 °F 39 °F 30.4 in North 8.1 mph 8.1 mph 64 % 0 in
09:53 52.3 °F 42.4 °F 30.4 in NNE 10.4 mph 10.4 mph 69 % 0 in
09:54 52.3 °F 41.7 °F 30.4 in NNE 10.4 mph 10.4 mph 67 % 0 in
09:59 53.1 °F 41.9 °F 30.4 in NE 8.1 mph 8.1 mph 66 % 0 in
10:04 54.7 °F 45 °F 30.5 in NE 13 mph 13 mph 70 % 0 in
10:09 55.6 °F 45.7 °F 30.5 in ENE 13.8 mph 13.8 mph 69 % 0 in
10:14 55.8 °F 45 °F 30.5 in ENE 16.1 mph 16.1 mph 67 % 0 in
10:19 55.9 °F 45.5 °F 30.5 in ENE 15 mph 15 mph 68 % 0 in
10:24 55.9 °F 45.1 °F 30.5 in NE 16.1 mph 16.1 mph 67 % 0 in
10:29 55.9 °F 45.7 °F 30.5 in ENE 15 mph 15 mph 68 % 0 in
10:34 56.1 °F 45.9 °F 30.5 in ENE 16.1 mph 16.1 mph 68 % 0 in
10:39 56.1 °F 45.3 °F 30.5 in ENE 11.5 mph 11.5 mph 67 % 0 in
10:44 56.1 °F 45.9 °F 30.5 in ENE 15 mph 15 mph 68 % 0 in
10:49 56.3 °F 45.9 °F 30.5 in ENE 17 mph 17 mph 68 % 0 in
10:54 56.3 °F 45.9 °F 30.5 in East 15 mph 15 mph 68 % 0 in
10:59 56.3 °F 45.9 °F 30.5 in ENE 15 mph 15 mph 68 % 0 in
11:04 56.5 °F 46 °F 30.5 in East 15 mph 15 mph 68 % 0 in
11:09 56.7 °F 46.2 °F 30.5 in East 14 mph 14 mph 68 % 0 in
11:14 56.7 °F 45.3 °F 30.5 in ENE 15 mph 15 mph 66 % 0 in
11:19 56.7 °F 45.9 °F 30.5 in East 13 mph 13 mph 67 % 0 in
11:24 56.7 °F 45.5 °F 30.5 in ENE 17.3 mph 17.3 mph 66 % 0 in
11:29 56.7 °F 45.5 °F 30.5 in East 17 mph 17 mph 66 % 0 in
11:34 56.8 °F 46.4 °F 30.5 in ENE 16.1 mph 16.1 mph 68 % 0 in
11:39 56.8 °F 46 °F 30.5 in ENE 17 mph 17 mph 67 % 0 in
11:44 56.8 °F 46.4 °F 30.5 in East 13.8 mph 13.8 mph 68 % 0 in
11:49 56.8 °F 46.8 °F 30.5 in East 14 mph 14 mph 69 % 0 in
11:54 56.8 °F 46 °F 30.5 in ESE 15 mph 15 mph 67 % 0 in
11:59 56.8 °F 45.7 °F 30.5 in ESE 16.1 mph 16.1 mph 66 % 0 in
12:04 57 °F 46 °F 30.5 in East 17.3 mph 17.3 mph 67 % 0 in
12:09 57 °F 46 °F 30.5 in ESE 12.7 mph 12.7 mph 67 % 0 in
12:14 57 °F 46.6 °F 30.5 in East 14 mph 14 mph 68 % 0 in
12:19 57 °F 46.6 °F 30.5 in ESE 17.3 mph 17.3 mph 68 % 0 in
12:24 57 °F 46.6 °F 30.5 in ESE 16.1 mph 16.1 mph 68 % 0 in
12:29 57 °F 46.2 °F 30.5 in ESE 18.4 mph 18.4 mph 67 % 0 in
12:34 57 °F 46 °F 30.5 in ESE 16.1 mph 16.1 mph 67 % 0 in
12:35 57 °F 46 °F 30.5 in ESE 15 mph 17 mph 67 % 0 in
12:40 57 °F 45.7 °F 30.5 in East 18.4 mph 18.4 mph 66 % 0 in
12:45 57 °F 46 °F 30.5 in ESE 14 mph 17 mph 67 % 0 in
12:50 56.8 °F 45.7 °F 30.5 in ESE 15 mph 17 mph 66 % 0 in
12:55 57 °F 46.9 °F 30.5 in ESE 17.3 mph 17.3 mph 69 % 0 in
13:00 57 °F 45.3 °F 30.5 in ESE 16 mph 20 mph 65 % 0 in
13:05 57 °F 46.2 °F 30.5 in ESE 15 mph 17 mph 67 % 0 in
13:10 57.2 °F 46.8 °F 30.5 in East 17.3 mph 17.3 mph 68 % 0 in
13:15 57 °F 46.2 °F 30.5 in ESE 15 mph 21 mph 67 % 0 in
13:20 57 °F 46.2 °F 30.5 in East 15 mph 15 mph 67 % 0 in
13:25 57 °F 46.6 °F 30.5 in ESE 15 mph 17 mph 68 % 0 in
13:30 57 °F 46.9 °F 30.5 in ESE 16.1 mph 16.1 mph 69 % 0 in
13:35 57.2 °F 47.1 °F 30.5 in ESE 18.4 mph 18.4 mph 69 % 0 in
13:40 57 °F 46 °F 30.5 in ESE 15 mph 18 mph 67 % 0 in
13:45 57.2 °F 47.5 °F 30.5 in East 18.4 mph 18.4 mph 70 % 0 in
13:50 57 °F 46.2 °F 30.5 in East 16 mph 16 mph 67 % 0 in
13:55 57.2 °F 46.8 °F 30.5 in ESE 16 mph 20 mph 68 % 0 in
14:00 57 °F 46.6 °F 30.5 in ESE 19.6 mph 19.6 mph 68 % 0 in
14:10 57 °F 46.2 °F 30.5 in ESE 18 mph 22 mph 67 % 0 in
14:15 57 °F 46.2 °F 30.5 in East 15 mph 20 mph 67 % 0 in
14:20 57 °F 46.6 °F 30.5 in ESE 19.6 mph 19.6 mph 68 % 0 in
14:25 57 °F 47.5 °F 30.4 in East 16 mph 20 mph 70 % 0 in
14:30 57 °F 46.9 °F 30.4 in East 24.2 mph 24.2 mph 69 % 0 in
14:35 57.2 °F 47.5 °F 30.4 in East 23 mph 23 mph 70 % 0 in
14:40 57 °F 47.5 °F 30.4 in East 19.6 mph 19.6 mph 70 % 0 in
14:45 57.2 °F 47.1 °F 30.4 in East 18.4 mph 18.4 mph 69 % 0 in
14:50 57 °F 46.2 °F 30.4 in East 13 mph 16 mph 67 % 0 in
14:55 57.4 °F 46.9 °F 30.4 in East 14 mph 18 mph 68 % 0 in
15:00 57.4 °F 47.3 °F 30.4 in East 18.4 mph 18.4 mph 69 % 0 in
15:05 57.4 °F 46.8 °F 30.4 in East 17 mph 21 mph 68 % 0 in
15:10 57.4 °F 45.7 °F 30.4 in ENE 19.6 mph 19.6 mph 65 % 0 in
15:15 57.4 °F 45.7 °F 30.4 in ENE 18.4 mph 18.4 mph 65 % 0 in
15:20 57.6 °F 46.6 °F 30.4 in ENE 17.3 mph 17.3 mph 67 % 0 in
15:25 57.6 °F 46.2 °F 30.4 in ENE 18.4 mph 18.4 mph 66 % 0 in
15:30 57.6 °F 46.2 °F 30.4 in ENE 14 mph 20 mph 66 % 0 in
15:31 57.6 °F 46.2 °F 30.4 in East 15 mph 15 mph 66 % 0 in
15:36 57.6 °F 46.8 °F 30.4 in East 18.4 mph 18.4 mph 67 % 0 in
15:41 57.6 °F 46.2 °F 30.4 in East 19.6 mph 19.6 mph 66 % 0 in
15:46 57.6 °F 47.5 °F 30.4 in East 15 mph 15 mph 69 % 0 in
15:51 57.7 °F 45.7 °F 30.4 in East 21 mph 21 mph 64 % 0 in
15:56 57.7 °F 45.7 °F 30.4 in East 19.6 mph 19.6 mph 64 % 0 in
15:57 57.7 °F 45.7 °F 30.4 in East 19.6 mph 19.6 mph 64 % 0 in
16:02 57.7 °F 45.7 °F 30.4 in East 18.4 mph 18.4 mph 64 % 0 in
16:07 57.7 °F 46.4 °F 30.4 in East 18.4 mph 18.4 mph 66 % 0 in
16:12 57.6 °F 45.3 °F 30.4 in ESE 19.6 mph 19.6 mph 64 % 0 in
16:17 57.6 °F 45 °F 30.4 in East 19 mph 19 mph 63 % 0 in
16:22 57.7 °F 44.8 °F 30.4 in East 18.4 mph 18.4 mph 62 % 0 in
16:27 57.7 °F 45.1 °F 30.4 in East 21 mph 21 mph 63 % 0 in
16:32 57.6 °F 45.9 °F 30.4 in East 20.7 mph 20.7 mph 65 % 0 in
16:37 57.4 °F 46 °F 30.4 in East 19.6 mph 19.6 mph 66 % 0 in
16:42 57.6 °F 45.3 °F 30.4 in East 20.7 mph 20.7 mph 64 % 0 in
16:47 57.6 °F 46.2 °F 30.4 in ENE 21.9 mph 21.9 mph 66 % 0 in
16:52 57.2 °F 46.2 °F 30.4 in East 20.7 mph 20.7 mph 67 % 0 in
16:57 57.2 °F 46.8 °F 30.4 in East 18.4 mph 18.4 mph 68 % 0 in
17:02 57.4 °F 46.8 °F 30.4 in East 16.1 mph 16.1 mph 68 % 0 in
17:07 57.4 °F 46.8 °F 30.4 in ENE 19.6 mph 19.6 mph 68 % 0 in
17:12 57.4 °F 46 °F 30.4 in East 20.7 mph 20.7 mph 66 % 0 in
17:17 57.2 °F 45.5 °F 30.5 in East 18.4 mph 18.4 mph 65 % 0 in
17:22 57.2 °F 45.9 °F 30.5 in East 17.3 mph 17.3 mph 66 % 0 in
17:27 57.2 °F 46.8 °F 30.5 in ENE 17.3 mph 17.3 mph 68 % 0 in
17:32 57.2 °F 45.9 °F 30.5 in East 16.1 mph 16.1 mph 66 % 0 in
17:37 57.4 °F 46.4 °F 30.5 in East 17.3 mph 17.3 mph 67 % 0 in
17:42 57.4 °F 46.8 °F 30.5 in ENE 17.3 mph 17.3 mph 68 % 0 in
17:47 57.4 °F 47.1 °F 30.5 in East 19.6 mph 19.6 mph 69 % 0 in
17:52 57.2 °F 46.8 °F 30.5 in East 19.6 mph 19.6 mph 68 % 0 in
17:57 57 °F 46.6 °F 30.5 in ENE 15 mph 15 mph 68 % 0 in
18:02 56.8 °F 46.8 °F 30.5 in East 19.6 mph 19.6 mph 69 % 0 in
18:03 56.8 °F 46.4 °F 30.5 in ENE 19.6 mph 19.6 mph 68 % 0 in
18:08 57 °F 47.3 °F 30.5 in East 15 mph 15 mph 70 % 0 in
18:13 56.8 °F 46.8 °F 30.5 in ENE 15 mph 15 mph 69 % 0 in
18:18 56.7 °F 46.2 °F 30.5 in ENE 13.8 mph 13.8 mph 68 % 0 in
18:23 56.7 °F 46.6 °F 30.5 in ENE 12 mph 12 mph 69 % 0 in
18:28 56.5 °F 46.4 °F 30.5 in ENE 13.8 mph 13.8 mph 69 % 0 in
18:33 56.5 °F 46.4 °F 30.5 in ENE 13.8 mph 13.8 mph 69 % 0 in
18:38 56.3 °F 46.2 °F 30.5 in ENE 11.5 mph 11.5 mph 69 % 0 in
18:43 56.1 °F 45.9 °F 30.5 in ENE 11.5 mph 11.5 mph 68 % 0 in
18:48 56.1 °F 46.2 °F 30.5 in ENE 11.5 mph 11.5 mph 69 % 0 in
18:53 56.1 °F 46 °F 30.5 in ENE 11.5 mph 11.5 mph 69 % 0 in
18:58 56.1 °F 46 °F 30.5 in ENE 11.5 mph 11.5 mph 69 % 0 in
19:03 56.1 °F 45.7 °F 30.5 in NE 11.5 mph 11.5 mph 68 % 0 in
19:08 55.9 °F 45.7 °F 30.5 in NE 12.7 mph 12.7 mph 68 % 0 in
19:13 55.9 °F 45.5 °F 30.5 in NE 10.4 mph 10.4 mph 68 % 0 in
19:23 55.9 °F 45.5 °F 30.5 in NE 10.4 mph 10.4 mph 68 % 0 in
19:28 55.8 °F 45 °F 30.5 in NE 11 mph 11 mph 67 % 0 in
19:33 55.9 °F 45.5 °F 30.5 in NNE 10.4 mph 10.4 mph 68 % 0 in
19:38 55.8 °F 45.3 °F 30.5 in NE 10.4 mph 10.4 mph 68 % 0 in
19:43 55.8 °F 45.3 °F 30.5 in NNE 9.2 mph 9.2 mph 68 % 0 in
19:48 55.8 °F 45.3 °F 30.5 in NE 9.2 mph 9.2 mph 68 % 0 in
19:53 55.8 °F 45.9 °F 30.5 in NE 8.1 mph 8.1 mph 69 % 0 in
19:58 55.8 °F 45.7 °F 30.5 in NE 8.1 mph 8.1 mph 69 % 0 in
20:03 55.8 °F 45.7 °F 30.5 in NE 10.4 mph 10.4 mph 69 % 0 in
20:08 55.9 °F 46.2 °F 30.5 in NE 10.4 mph 10.4 mph 70 % 0 in
20:13 55.9 °F 46 °F 30.5 in ENE 11.5 mph 11.5 mph 69 % 0 in
20:23 56.1 °F 46.4 °F 30.5 in NE 10.4 mph 10.4 mph 70 % 0 in
20:28 56.1 °F 46.6 °F 30.5 in ENE 10.4 mph 10.4 mph 70 % 0 in
20:33 56.1 °F 46.6 °F 30.5 in NE 9.2 mph 9.2 mph 70 % 0 in
20:38 55.9 °F 46.8 °F 30.5 in NE 11.5 mph 11.5 mph 71 % 0 in
20:43 56.1 °F 46.8 °F 30.5 in ENE 10.4 mph 10.4 mph 71 % 0 in
20:48 56.1 °F 46.9 °F 30.5 in NE 9.2 mph 9.2 mph 71 % 0 in
20:53 56.1 °F 46.8 °F 30.5 in NE 10.4 mph 10.4 mph 71 % 0 in
20:58 55.9 °F 46.4 °F 30.5 in NE 8.1 mph 8.1 mph 70 % 0 in
21:03 55.9 °F 46.8 °F 30.5 in NE 8.1 mph 8.1 mph 71 % 0 in
21:08 55.9 °F 46.6 °F 30.5 in NE 6.9 mph 6.9 mph 71 % 0 in
21:13 55.6 °F 46.2 °F 30.5 in NNE 5.8 mph 5.8 mph 71 % 0 in
21:18 54.9 °F 45.7 °F 30.5 in NE 9.2 mph 9.2 mph 71 % 0 in
21:23 54.3 °F 45.7 °F 30.5 in NE 3.5 mph 3.5 mph 72 % 0 in
21:33 55.2 °F 46.8 °F 30.5 in NE 10.4 mph 10.4 mph 73 % 0 in
21:38 55.6 °F 46.8 °F 30.5 in NE 8.1 mph 8.1 mph 72 % 0 in
21:43 55.6 °F 46.8 °F 30.5 in NE 5.8 mph 5.8 mph 72 % 0 in
21:48 55 °F 46.2 °F 30.5 in NNE 6.9 mph 6.9 mph 72 % 0 in
21:53 54.5 °F 45.3 °F 30.5 in NNE 3.5 mph 3.5 mph 71 % 0 in
21:58 54.7 °F 46.6 °F 30.5 in ENE 9.2 mph 9.2 mph 74 % 0 in
22:03 55.8 °F 47.1 °F 30.5 in ENE 9 mph 9 mph 73 % 0 in
22:08 56.1 °F 47.3 °F 30.5 in NE 11.5 mph 11.5 mph 72 % 0 in
22:13 56.5 °F 47.1 °F 30.5 in NNE 11.5 mph 11.5 mph 71 % 0 in
22:18 56.7 °F 47.7 °F 30.5 in ENE 10.4 mph 10.4 mph 72 % 0 in
22:23 56.7 °F 47.3 °F 30.5 in NE 11.5 mph 11.5 mph 71 % 0 in
22:28 56.7 °F 47.8 °F 30.5 in ENE 10.4 mph 10.4 mph 72 % 0 in
22:33 56.7 °F 47.8 °F 30.5 in ENE 9.2 mph 9.2 mph 72 % 0 in
22:38 56.7 °F 47.8 °F 30.5 in ENE 9.2 mph 9.2 mph 72 % 0 in
22:43 56.5 °F 47.7 °F 30.5 in NE 11.5 mph 11.5 mph 72 % 0 in
22:48 56.5 °F 47.5 °F 30.5 in ENE 9.2 mph 9.2 mph 72 % 0 in
22:53 56.5 °F 47.7 °F 30.5 in ENE 11.5 mph 11.5 mph 72 % 0 in
22:58 56.7 °F 47.7 °F 30.5 in ENE 10.4 mph 10.4 mph 72 % 0 in
23:03 56.7 °F 47.7 °F 30.5 in ENE 9.2 mph 9.2 mph 72 % 0 in
23:08 56.5 °F 47.5 °F 30.5 in ENE 10.4 mph 10.4 mph 72 % 0 in
23:13 56.5 °F 47.5 °F 30.5 in NE 8.1 mph 8.1 mph 72 % 0 in
23:18 56.1 °F 47.7 °F 30.5 in NE 9.2 mph 9.2 mph 73 % 0 in
23:23 56.5 °F 47.5 °F 30.5 in ENE 11 mph 11 mph 72 % 0 in
23:28 56.7 °F 47.7 °F 30.5 in ENE 11.5 mph 11.5 mph 72 % 0 in
23:33 56.7 °F 47.7 °F 30.5 in NE 11.5 mph 11.5 mph 72 % 0 in
23:38 56.7 °F 47.3 °F 30.5 in ENE 11.5 mph 11.5 mph 71 % 0 in
23:43 56.7 °F 47.3 °F 30.5 in NE 11.5 mph 11.5 mph 71 % 0 in
23:48 56.5 °F 47.1 °F 30.5 in ENE 10.4 mph 10.4 mph 71 % 0 in
23:54 56.5 °F 47.1 °F 30.5 in NE 10.4 mph 10.4 mph 71 % 0 in
23:59 56.3 °F 46.9 °F 30.5 in NE 9.2 mph 9.2 mph 71 % 0 in
Puerto Banus, Marbella
Elogios de Weather Underground - 2 mb

Guión original por  Jim McMurry - jmcmurry@mwt.net Adaptado para la plantilla por  Wim van der Kuil - Leuven-Template.eu

Usted encontrará nuestra información del tiempo también en:

Weather Underground

Iberian Peninsula Weather Network